Time;durP1;ratioP1;P1;durP2;ratioP2;P2;SDS_P1;SDS_P2;PMS_P1;PMS_P2;Temp;Humidity;BMP_temperature;BMP_pressure;BME280_temperature;BME280_humidity;BME280_pressure;Samples;Min_cycle;Max_cycle;Signal;HPM_P1;HPM_P2
2022/12/30 00:01:11;;;;;;;18.25;3.25;;;7.50;99.90;;;;;;5045745;28;20412;-62
2022/12/30 00:03:36;;;;;;;18.92;3.05;;;7.60;99.90;;;;;;5046195;28;20036;-61
2022/12/30 00:06:04;;;;;;;14.00;3.05;;;7.50;99.90;;;;;;5043732;28;20436;-60
2022/12/30 00:08:48;;;;;;;17.58;3.75;;;7.50;99.90;;;;;;5046406;28;20589;-61
2022/12/30 00:11:19;;;;;;;18.20;3.17;;;7.40;99.90;;;;;;5044802;28;20666;-61
2022/12/30 00:33:28;;;;;;;20.02;3.13;;;7.40;99.90;;;;;;5045788;28;20033;-60
2022/12/30 00:35:54;;;;;;;11.38;3.10;;;7.50;99.90;;;;;;5026489;28;20021;-61
2022/12/30 00:38:20;;;;;;;15.75;3.50;;;7.50;99.90;;;;;;5045890;28;20250;-60
2022/12/30 00:43:29;;;;;;;18.27;2.65;;;7.50;99.90;;;;;;5044468;28;20119;-62
2022/12/30 00:45:55;;;;;;;17.42;2.85;;;7.40;99.90;;;;;;5045252;28;20028;-61
2022/12/30 00:56:35;;;;;;;14.50;2.63;;;7.70;99.90;;;;;;5044741;28;20085;-61
2022/12/30 00:59:00;;;;;;;15.90;3.35;;;7.50;99.90;;;;;;5045436;28;20049;-61
2022/12/30 01:01:26;;;;;;;12.75;3.22;;;7.60;99.90;;;;;;5045119;28;20116;-62
2022/12/30 01:03:51;;;;;;;13.90;2.40;;;7.50;99.90;;;;;;5045633;28;20021;-61
2022/12/30 01:06:17;;;;;;;16.65;3.13;;;7.50;99.90;;;;;;5044793;28;20124;-60
2022/12/30 01:08:42;;;;;;;13.68;2.67;;;7.30;99.90;;;;;;5045065;28;20029;-60
2022/12/30 01:11:09;;;;;;;15.10;2.78;;;7.30;99.90;;;;;;5043783;28;20029;-61
2022/12/30 01:13:36;;;;;;;14.98;2.60;;;7.40;99.90;;;;;;5043899;28;20078;-60
2022/12/30 01:16:13;;;;;;;16.30;3.20;;;7.40;99.90;;;;;;5042754;28;20040;-62
2022/12/30 01:18:39;;;;;;;19.23;2.83;;;7.50;99.90;;;;;;5022675;28;20064;-61
2022/12/30 01:21:06;;;;;;;18.52;3.13;;;7.40;99.90;;;;;;5044664;28;20052;-60
2022/12/30 01:23:32;;;;;;;10.73;2.33;;;7.30;99.90;;;;;;5044312;28;20487;-61
2022/12/30 01:26:03;;;;;;;18.45;3.15;;;7.00;99.90;;;;;;5043034;28;20040;-60
2022/12/30 01:28:31;;;;;;;14.35;2.72;;;6.90;99.90;;;;;;5039119;28;20132;-61
2022/12/30 01:30:58;;;;;;;13.27;2.35;;;7.00;99.90;;;;;;5043921;28;20090;-61
2022/12/30 01:33:24;;;;;;;12.35;2.75;;;7.00;99.90;;;;;;5042661;28;20056;-60
2022/12/30 01:35:49;;;;;;;10.35;2.72;;;6.80;99.90;;;;;;5043769;28;20657;-61
2022/12/30 01:38:15;;;;;;;17.30;3.10;;;8.00;99.90;;;;;;5045096;28;20029;-62
2022/12/30 01:40:42;;;;;;;14.93;3.00;;;6.90;99.90;;;;;;5024134;28;20032;-62
2022/12/30 01:43:17;;;;;;;11.73;2.60;;;6.80;99.90;;;;;;5044975;28;20036;-62
2022/12/30 01:45:50;;;;;;;16.73;3.00;;;6.80;99.90;;;;;;5030217;28;20065;-61
2022/12/30 01:48:16;;;;;;;15.23;2.80;;;6.80;99.90;;;;;;5019758;28;20049;-61
2022/12/30 01:50:51;;;;;;;13.60;2.92;;;6.80;99.90;;;;;;5034023;28;20053;-60
2022/12/30 01:53:25;;;;;;;17.83;3.33;;;7.00;99.90;;;;;;5015692;28;20686;-61
2022/12/30 01:56:02;;;;;;;14.90;2.80;;;7.00;99.90;;;;;;5023438;28;20585;-61
2022/12/30 01:59:03;;;;;;;17.17;2.50;;;6.90;99.90;;;;;;5024554;28;20029;-62
2022/12/30 02:01:31;;;;;;;13.63;2.83;;;7.20;99.90;;;;;;5024473;28;20033;-61
2022/12/30 02:04:02;;;;;;;15.02;2.83;;;7.50;99.90;;;;;;5029060;28;20033;-62
2022/12/30 02:06:52;;;;;;;18.83;2.97;;;6.80;99.90;;;;;;5023648;28;20029;-61
2022/12/30 02:09:18;;;;;;;13.65;2.47;;;6.80;99.90;;;;;;5040910;28;20041;-61
2022/12/30 02:11:44;;;;;;;16.83;2.88;;;6.90;99.90;;;;;;5039194;28;20040;-61
2022/12/30 02:14:10;;;;;;;16.58;2.97;;;7.20;99.90;;;;;;5043974;28;20033;-61
2022/12/30 02:16:59;;;;;;;11.23;3.00;;;7.00;99.90;;;;;;5021070;28;20034;-60
2022/12/30 02:20:05;;;;;;;17.85;2.90;;;7.00;99.90;;;;;;5011707;28;20030;-60
2022/12/30 02:23:01;;;;;;;15.23;2.83;;;6.90;99.90;;;;;;5021903;28;20056;-62
2022/12/30 02:25:45;;;;;;;15.88;2.90;;;7.00;99.90;;;;;;5034771;28;20033;-61
2022/12/30 02:28:35;;;;;;;18.02;2.83;;;6.80;99.90;;;;;;5043950;28;20167;-60
2022/12/30 02:31:33;;;;;;;17.23;3.55;;;6.90;99.90;;;;;;5041317;28;20048;-61
2022/12/30 02:34:14;;;;;;;13.65;2.78;;;6.80;99.90;;;;;;5022334;28;20105;-61
2022/12/30 02:36:46;;;;;;;12.55;2.83;;;6.80;99.90;;;;;;5039529;28;20477;-63
2022/12/30 02:39:33;;;;;;;14.57;2.78;;;6.60;99.90;;;;;;5041829;28;20091;-60
2022/12/30 02:44:58;;;;;;;17.35;2.97;;;6.70;99.90;;;;;;5041210;28;20083;-61
2022/12/30 02:47:42;;;;;;;12.88;2.65;;;6.80;99.90;;;;;;5039672;28;20048;-60
2022/12/30 02:53:03;;;;;;;16.88;2.60;;;6.50;99.90;;;;;;5012229;28;20055;-61
2022/12/30 02:55:28;;;;;;;17.60;3.70;;;6.50;99.90;;;;;;5043548;28;20116;-62
2022/12/30 02:57:54;;;;;;;13.60;2.67;;;6.50;99.90;;;;;;5036356;28;20128;-62
2022/12/30 03:06:44;;;;;;;17.58;2.75;;;6.30;99.90;;;;;;5037196;28;20087;-60
2022/12/30 03:09:42;;;;;;;15.55;2.60;;;6.40;99.90;;;;;;5042302;28;20492;-62
2022/12/30 03:12:18;;;;;;;12.98;2.67;;;6.30;99.90;;;;;;5042093;28;20048;-60
2022/12/30 03:15:02;;;;;;;14.13;2.78;;;6.40;99.90;;;;;;5042019;28;20041;-60
2022/12/30 03:17:37;;;;;;;13.50;3.20;;;6.20;99.90;;;;;;5043775;28;20159;-59
2022/12/30 03:20:08;;;;;;;15.40;2.95;;;6.20;99.90;;;;;;5021989;28;20025;-61
2022/12/30 03:28:08;;;;;;;12.10;2.78;;;6.00;99.90;;;;;;5027346;28;20045;-60
2022/12/30 03:30:39;;;;;;;11.15;2.35;;;6.00;99.90;;;;;;5022117;28;20041;-59
2022/12/30 03:33:05;;;;;;;16.40;2.70;;;5.90;99.90;;;;;;5026333;28;20026;-61
2022/12/30 03:35:38;;;;;;;15.20;2.97;;;5.90;99.90;;;;;;5019534;28;20424;-60
2022/12/30 03:38:06;;;;;;;20.42;2.63;;;5.90;99.90;;;;;;5025078;28;20047;-59
2022/12/30 03:40:36;;;;;;;15.57;2.97;;;5.90;99.90;;;;;;5026393;28;20083;-61
2022/12/30 03:43:03;;;;;;;17.77;3.22;;;5.90;99.90;;;;;;5035609;28;20660;-59
2022/12/30 03:45:28;;;;;;;15.02;2.80;;;5.90;99.90;;;;;;5024008;28;20497;-60
2022/12/30 03:47:54;;;;;;;12.90;2.53;;;5.90;99.90;;;;;;5025880;28;20112;-60
2022/12/30 03:50:19;;;;;;;12.57;2.50;;;5.90;99.90;;;;;;5026610;28;20133;-60
2022/12/30 03:52:45;;;;;;;12.98;2.63;;;5.90;99.90;;;;;;5031133;28;20439;-60
2022/12/30 03:55:10;;;;;;;13.35;2.80;;;5.90;99.90;;;;;;5022059;28;20128;-60
2022/12/30 03:57:36;;;;;;;10.23;2.47;;;5.90;99.90;;;;;;5028351;28;20034;-60
2022/12/30 04:00:06;;;;;;;17.23;3.30;;;5.90;99.90;;;;;;5027941;28;20033;-61
2022/12/30 04:02:31;;;;;;;13.77;2.55;;;5.90;99.90;;;;;;5011557;28;20098;-60
2022/12/30 04:04:57;;;;;;;20.33;3.22;;;6.00;99.90;;;;;;5028446;28;20045;-60
2022/12/30 04:07:22;;;;;;;20.17;2.53;;;5.90;99.90;;;;;;5022324;28;20033;-60
2022/12/30 04:09:48;;;;;;;16.85;3.20;;;5.90;99.90;;;;;;5025921;28;20038;-60
2022/12/30 04:12:13;;;;;;;13.50;2.40;;;5.90;99.90;;;;;;5028879;28;20061;-61
2022/12/30 04:14:39;;;;;;;19.17;2.72;;;5.90;99.90;;;;;;5027700;28;20033;-61
2022/12/30 04:17:04;;;;;;;16.00;2.20;;;6.00;99.90;;;;;;5022801;28;20036;-60
2022/12/30 04:19:30;;;;;;;14.15;2.40;;;6.00;99.90;;;;;;5021827;28;20112;-60
2022/12/30 04:21:55;;;;;;;13.93;2.60;;;5.90;99.90;;;;;;5023511;28;20033;-60
2022/12/30 04:24:21;;;;;;;15.15;2.88;;;5.90;99.90;;;;;;5029536;28;20037;-59
2022/12/30 04:26:47;;;;;;;11.18;2.63;;;5.80;99.90;;;;;;5025524;28;20069;-59
2022/12/30 04:29:12;;;;;;;10.25;2.70;;;5.90;99.90;;;;;;5022423;28;20083;-61
2022/12/30 04:31:38;;;;;;;23.70;2.95;;;5.90;99.90;;;;;;5004624;28;20052;-60
2022/12/30 04:34:03;;;;;;;17.95;2.95;;;5.90;99.90;;;;;;5029725;28;20028;-60
2022/12/30 04:36:29;;;;;;;15.02;2.60;;;5.90;99.90;;;;;;5023740;28;20083;-60
2022/12/30 04:38:55;;;;;;;15.98;2.50;;;5.80;99.90;;;;;;5012108;28;20117;-60
2022/12/30 04:41:21;;;;;;;15.02;3.22;;;5.80;99.90;;;;;;5025354;28;20117;-60
2022/12/30 04:43:47;;;;;;;13.55;2.97;;;5.90;99.90;;;;;;5025308;28;20592;-61
2022/12/30 04:46:13;;;;;;;16.17;3.03;;;5.90;99.90;;;;;;5027947;28;20068;-59
2022/12/30 04:48:39;;;;;;;16.58;2.85;;;5.90;99.90;;;;;;5009642;28;20079;-60
2022/12/30 04:51:05;;;;;;;13.75;2.47;;;6.00;99.90;;;;;;5024126;28;20081;-61
2022/12/30 04:53:31;;;;;;;17.20;2.83;;;5.90;99.90;;;;;;5020934;28;20034;-60
2022/12/30 04:55:57;;;;;;;12.38;2.33;;;5.80;99.90;;;;;;5025191;28;20030;-61
2022/12/30 04:58:24;;;;;;;15.93;2.72;;;5.90;99.90;;;;;;5023497;28;20033;-60
2022/12/30 05:00:51;;;;;;;21.17;3.47;;;5.80;99.90;;;;;;5022618;28;20478;-59
2022/12/30 05:03:17;;;;;;;16.48;3.17;;;5.80;99.90;;;;;;5026588;28;20051;-59
2022/12/30 05:05:43;;;;;;;16.60;3.00;;;5.80;99.90;;;;;;5023256;28;20049;-60
2022/12/30 05:08:08;;;;;;;14.00;3.20;;;5.80;99.90;;;;;;5029714;28;20018;-60
2022/12/30 05:10:35;;;;;;;20.30;2.88;;;5.80;99.90;;;;;;5021422;28;20031;-60
2022/12/30 05:13:01;;;;;;;13.05;2.53;;;5.90;99.90;;;;;;5029269;28;20030;-60
2022/12/30 05:15:26;;;;;;;15.32;2.60;;;5.90;99.90;;;;;;5044893;28;20447;-59
2022/12/30 05:17:52;;;;;;;19.00;2.88;;;6.00;99.90;;;;;;5045162;28;20457;-60
2022/12/30 05:20:17;;;;;;;23.65;3.63;;;5.90;99.90;;;;;;5045334;28;20029;-60
2022/12/30 05:22:43;;;;;;;18.17;2.55;;;5.90;99.90;;;;;;5045802;28;20388;-61
2022/12/30 05:27:53;;;;;;;16.00;2.70;;;6.10;99.90;;;;;;5044814;28;20537;-60
2022/12/30 05:30:19;;;;;;;15.10;2.75;;;6.10;99.90;;;;;;5045438;28;20025;-60
2022/12/30 05:32:44;;;;;;;13.93;2.78;;;6.00;99.90;;;;;;5045655;28;20039;-59
2022/12/30 05:35:10;;;;;;;15.18;2.40;;;6.10;99.90;;;;;;5044379;28;20072;-61
2022/12/30 05:37:36;;;;;;;13.43;2.75;;;6.10;99.90;;;;;;5042500;28;20033;-60
2022/12/30 05:40:02;;;;;;;13.52;3.17;;;6.10;99.90;;;;;;5041505;28;20060;-60
2022/12/30 05:42:28;;;;;;;10.35;2.55;;;6.10;99.90;;;;;;5045158;28;20025;-60
2022/12/30 05:44:54;;;;;;;12.38;2.70;;;6.20;99.90;;;;;;5040422;28;20103;-60
2022/12/30 05:47:19;;;;;;;16.98;2.85;;;6.10;99.90;;;;;;5045884;28;20036;-60
2022/12/30 05:49:45;;;;;;;18.33;2.67;;;6.10;99.90;;;;;;5048318;28;20570;-61
2022/12/30 05:52:10;;;;;;;13.38;3.72;;;6.00;99.90;;;;;;5012310;28;20029;-61
2022/12/30 05:54:36;;;;;;;18.63;2.65;;;5.90;99.90;;;;;;5020685;28;20040;-61
2022/12/30 05:57:01;;;;;;;11.32;2.92;;;5.90;99.90;;;;;;5034629;28;20749;-61
2022/12/30 05:59:27;;;;;;;12.88;3.00;;;5.80;99.90;;;;;;5018065;28;20404;-60
2022/12/30 06:01:52;;;;;;;15.85;2.58;;;5.80;99.90;;;;;;5024156;28;20393;-60
2022/12/30 06:04:18;;;;;;;14.38;2.38;;;5.90;99.90;;;;;;5012638;28;20029;-60
2022/12/30 06:06:44;;;;;;;16.17;2.55;;;5.80;99.90;;;;;;5013006;28;20652;-60
2022/12/30 06:09:10;;;;;;;12.77;2.38;;;5.80;99.90;;;;;;5007747;28;20034;-61
2022/12/30 06:11:35;;;;;;;13.93;2.92;;;5.70;99.90;;;;;;5015178;28;20038;-61
2022/12/30 06:14:01;;;;;;;17.15;2.95;;;5.70;99.90;;;;;;5018537;28;20062;-61
2022/12/30 06:16:27;;;;;;;20.27;3.00;;;5.80;99.90;;;;;;5041829;28;20037;-61
2022/12/30 06:18:52;;;;;;;14.80;3.10;;;5.70;99.90;;;;;;5025053;28;20113;-60
2022/12/30 06:21:18;;;;;;;17.83;3.85;;;5.80;99.90;;;;;;5043075;28;20029;-60
2022/12/30 06:23:43;;;;;;;12.13;2.70;;;5.60;99.90;;;;;;5044961;28;20464;-59
2022/12/30 06:26:09;;;;;;;10.02;2.88;;;5.60;99.90;;;;;;5044765;28;20109;-59
2022/12/30 06:28:34;;;;;;;15.48;3.33;;;5.60;99.90;;;;;;5043202;28;20032;-60
2022/12/30 06:31:00;;;;;;;11.38;3.03;;;5.60;99.90;;;;;;5043402;28;20032;-61
2022/12/30 06:33:26;;;;;;;16.10;3.08;;;5.60;99.90;;;;;;5020574;28;20495;-61
2022/12/30 06:35:51;;;;;;;15.00;3.25;;;5.70;99.90;;;;;;5015836;28;20030;-60
2022/12/30 06:38:18;;;;;;;12.60;2.88;;;5.70;99.90;;;;;;5028690;28;20029;-60
2022/12/30 06:40:44;;;;;;;12.82;3.20;;;5.70;99.90;;;;;;5020673;28;20029;-60
2022/12/30 06:43:10;;;;;;;17.60;3.53;;;5.60;99.90;;;;;;4994611;28;20021;-59
2022/12/30 06:45:36;;;;;;;16.63;3.20;;;5.60;99.90;;;;;;5020555;28;20038;-60
2022/12/30 06:48:02;;;;;;;15.48;3.15;;;5.60;99.90;;;;;;5018659;28;20113;-60
2022/12/30 06:50:28;;;;;;;14.18;2.90;;;5.60;99.90;;;;;;5017054;28;20112;-60
2022/12/30 06:52:53;;;;;;;14.48;3.13;;;5.70;99.90;;;;;;5018531;28;20029;-60
2022/12/30 06:55:21;;;;;;;12.23;2.70;;;5.80;99.90;;;;;;5023014;28;20638;-59
2022/12/30 06:57:47;;;;;;;15.35;3.33;;;5.70;99.90;;;;;;5022261;28;20034;-61
2022/12/30 07:00:14;;;;;;;12.90;2.63;;;5.70;99.90;;;;;;5019692;28;20166;-60
2022/12/30 07:02:39;;;;;;;14.88;3.05;;;5.70;99.90;;;;;;5023140;28;20044;-59
2022/12/30 07:05:05;;;;;;;16.15;2.80;;;5.60;99.90;;;;;;5002024;28;20033;-60
2022/12/30 07:07:31;;;;;;;13.20;3.08;;;5.70;99.90;;;;;;5009685;28;20111;-60
2022/12/30 07:09:57;;;;;;;13.88;3.00;;;5.70;99.90;;;;;;5022551;28;20913;-60
2022/12/30 07:12:22;;;;;;;15.23;2.78;;;5.70;99.90;;;;;;5046014;28;20040;-61
2022/12/30 07:14:48;;;;;;;15.23;2.95;;;5.80;99.90;;;;;;5047868;28;20110;-61
2022/12/30 07:17:13;;;;;;;10.82;2.67;;;5.80;99.90;;;;;;5047230;28;20381;-60
2022/12/30 07:19:39;;;;;;;19.73;3.50;;;5.70;99.90;;;;;;5048411;28;20094;-61
2022/12/30 07:22:05;;;;;;;13.90;3.45;;;5.70;99.90;;;;;;5047564;28;20090;-60
2022/12/30 07:24:30;;;;;;;15.27;3.28;;;5.80;99.90;;;;;;5047859;28;20033;-60
2022/12/30 07:26:56;;;;;;;11.20;2.75;;;5.80;99.90;;;;;;5027653;28;20060;-60
2022/12/30 07:29:21;;;;;;;10.02;2.20;;;5.80;99.90;;;;;;5047276;28;20293;-60
2022/12/30 07:31:47;;;;;;;14.38;2.58;;;5.80;99.90;;;;;;5050376;28;20415;-61
2022/12/30 07:34:13;;;;;;;10.77;2.70;;;5.80;99.90;;;;;;5055906;28;20049;-61
2022/12/30 07:36:38;;;;;;;16.27;2.88;;;5.80;99.90;;;;;;5051916;28;20037;-59
2022/12/30 07:39:04;;;;;;;9.32;2.13;;;6.00;99.90;;;;;;5028264;28;20033;-60
2022/12/30 07:41:29;;;;;;;18.38;2.53;;;5.90;99.90;;;;;;5040522;28;20029;-61
2022/12/30 07:43:55;;;;;;;14.10;2.80;;;6.00;99.90;;;;;;5050606;28;20032;-60
2022/12/30 07:46:20;;;;;;;13.00;2.25;;;5.90;99.90;;;;;;5050828;28;20405;-60
2022/12/30 07:48:46;;;;;;;12.40;2.35;;;5.90;99.90;;;;;;5049773;28;20395;-60
2022/12/30 07:51:14;;;;;;;11.85;2.40;;;5.90;99.90;;;;;;5046471;28;20483;-61
2022/12/30 07:53:40;;;;;;;7.63;2.20;;;5.90;99.90;;;;;;5047434;28;20245;-61
2022/12/30 07:56:08;;;;;;;8.48;2.08;;;6.00;99.90;;;;;;5047004;28;20083;-61
2022/12/30 07:58:34;;;;;;;12.38;2.72;;;6.00;99.90;;;;;;5053562;28;20033;-61
2022/12/30 08:01:08;;;;;;;11.45;2.47;;;5.90;99.90;;;;;;5043499;28;20045;-60
2022/12/30 08:03:34;;;;;;;10.23;2.40;;;6.00;99.90;;;;;;5047155;28;20040;-60
2022/12/30 08:06:14;;;;;;;12.20;2.50;;;6.00;99.90;;;;;;5046329;28;20253;-60
2022/12/30 08:08:40;;;;;;;14.60;2.60;;;6.10;99.90;;;;;;5046444;28;20039;-60
2022/12/30 08:11:07;;;;;;;11.18;2.17;;;6.10;99.90;;;;;;5026581;28;20040;-60
2022/12/30 08:13:35;;;;;;;12.50;2.28;;;6.00;99.90;;;;;;5047200;28;20032;-60
2022/12/30 08:16:05;;;;;;;11.52;2.58;;;6.10;99.90;;;;;;5046480;28;20036;-59
2022/12/30 08:18:31;;;;;;;11.75;2.70;;;6.20;99.90;;;;;;5026793;28;20025;-59
2022/12/30 08:21:08;;;;;;;10.65;2.17;;;6.30;99.90;;;;;;5045449;28;20036;-60
2022/12/30 08:23:35;;;;;;;16.33;3.03;;;6.30;99.90;;;;;;5044374;28;20044;-60
2022/12/30 08:26:09;;;;;;;18.40;6.70;;;6.30;99.90;;;;;;5043790;28;20695;-60
2022/12/30 08:28:35;;;;;;;11.35;2.75;;;6.40;99.90;;;;;;5045575;28;20052;-60
2022/12/30 08:31:11;;;;;;;10.88;2.17;;;6.40;99.90;;;;;;5044980;28;20110;-60
2022/12/30 08:33:36;;;;;;;10.25;2.90;;;6.50;99.90;;;;;;5043156;28;20026;-60
2022/12/30 08:36:04;;;;;;;8.93;2.08;;;6.60;99.90;;;;;;5045529;28;20395;-60
2022/12/30 08:38:30;;;;;;;6.15;1.80;;;6.60;99.90;;;;;;5046620;28;20032;-60
2022/12/30 08:41:14;;;;;;;8.07;2.33;;;6.60;99.90;;;;;;5045289;28;20488;-60
2022/12/30 08:43:39;;;;;;;10.52;2.28;;;6.60;99.90;;;;;;5044946;28;20033;-60
2022/12/30 08:46:05;;;;;;;14.20;2.70;;;6.70;99.90;;;;;;5047832;28;20044;-60
2022/12/30 08:48:31;;;;;;;11.68;2.17;;;6.70;99.90;;;;;;5034616;28;20025;-61
2022/12/30 08:50:57;;;;;;;10.30;2.22;;;6.80;99.90;;;;;;5019274;28;20496;-59
2022/12/30 08:53:23;;;;;;;13.63;2.40;;;6.80;99.90;;;;;;5026495;28;20018;-60
2022/12/30 08:55:56;;;;;;;7.45;2.10;;;6.80;99.90;;;;;;5024619;28;20065;-60
2022/12/30 08:58:22;;;;;;;14.13;2.65;;;6.80;99.90;;;;;;5024992;28;20045;-60
2022/12/30 09:00:47;;;;;;;8.18;2.45;;;6.90;99.90;;;;;;5025231;28;20033;-61
2022/12/30 09:03:13;;;;;;;9.52;2.50;;;6.90;99.90;;;;;;5030628;28;20021;-61
2022/12/30 09:05:38;;;;;;;10.50;2.83;;;6.90;99.90;;;;;;5017383;28;20033;-60
2022/12/30 09:08:05;;;;;;;10.60;3.03;;;7.00;99.90;;;;;;5040921;28;20025;-60
2022/12/30 09:10:30;;;;;;;11.05;3.22;;;7.00;99.90;;;;;;5038038;28;20026;-60
2022/12/30 09:12:56;;;;;;;15.50;3.60;;;7.10;99.90;;;;;;5045522;28;20107;-61
2022/12/30 09:15:21;;;;;;;11.20;3.40;;;7.10;99.90;;;;;;5042529;28;20389;-60
2022/12/30 09:17:47;;;;;;;12.82;3.60;;;7.20;99.90;;;;;;5045069;28;20033;-60
2022/12/30 09:20:12;;;;;;;15.15;3.45;;;7.20;99.90;;;;;;5042307;28;20059;-61
2022/12/30 09:22:38;;;;;;;12.13;3.30;;;7.30;99.90;;;;;;5038417;28;20032;-60
2022/12/30 09:25:04;;;;;;;11.52;2.80;;;7.40;99.90;;;;;;5043013;28;20037;-60
2022/12/30 09:27:29;;;;;;;11.32;3.17;;;7.40;99.90;;;;;;5044137;28;20167;-61
2022/12/30 09:29:55;;;;;;;10.60;2.90;;;7.40;99.90;;;;;;5043588;28;20060;-60
2022/12/30 09:32:21;;;;;;;11.20;2.75;;;7.40;99.90;;;;;;5043135;28;20044;-61
2022/12/30 09:34:46;;;;;;;44.47;24.33;;;7.50;99.90;;;;;;5042850;28;20033;-60
2022/12/30 09:37:12;;;;;;;13.95;5.60;;;7.60;99.90;;;;;;5044745;28;20037;-60
2022/12/30 09:39:38;;;;;;;8.90;2.80;;;7.60;99.90;;;;;;5042249;28;20029;-60
2022/12/30 09:45:25;;;;;;;8.07;2.33;;;7.80;99.90;;;;;;5041880;28;20036;-60
2022/12/30 09:47:54;;;;;;;10.50;2.60;;;7.90;99.90;;;;;;5046800;28;20037;-59
2022/12/30 09:50:28;;;;;;;10.43;3.20;;;7.90;99.90;;;;;;5024718;28;20045;-63
2022/12/30 09:53:08;;;;;;;12.10;2.90;;;7.90;99.90;;;;;;5043688;28;20068;-62
2022/12/30 09:55:45;;;;;;;6.47;2.30;;;7.90;99.90;;;;;;5023034;28;20040;-62
2022/12/30 09:58:19;;;;;;;10.02;2.10;;;8.00;99.90;;;;;;5030247;28;20091;-60
2022/12/30 10:00:47;;;;;;;8.73;1.80;;;8.10;99.90;;;;;;5022962;28;20103;-62
2022/12/30 10:03:18;;;;;;;7.47;1.85;;;8.10;99.90;;;;;;5026926;28;20091;-60
2022/12/30 10:05:50;;;;;;;5.80;1.67;;;8.20;99.90;;;;;;5030241;28;20041;-61
2022/12/30 10:08:37;;;;;;;8.18;2.58;;;8.30;99.90;;;;;;5043677;28;20101;-61
2022/12/30 10:11:27;;;;;;;6.25;1.65;;;8.30;99.90;;;;;;5041235;28;20574;-62
2022/12/30 10:14:22;;;;;;;8.60;1.65;;;8.40;99.90;;;;;;5035230;28;20121;-60
2022/12/30 10:17:00;;;;;;;4.55;1.50;;;8.50;99.90;;;;;;5042948;28;20037;-60
2022/12/30 10:19:44;;;;;;;10.23;2.35;;;8.50;99.90;;;;;;5043753;28;20025;-61
2022/12/30 10:22:31;;;;;;;5.43;1.75;;;8.60;99.90;;;;;;5043579;28;20037;-60
2022/12/30 10:25:12;;;;;;;8.45;1.88;;;8.70;99.90;;;;;;5042285;28;20541;-61
2022/12/30 10:27:46;;;;;;;4.88;1.30;;;8.70;99.90;;;;;;5044026;28;20504;-62
2022/12/30 10:30:18;;;;;;;6.57;1.85;;;8.80;99.90;;;;;;5041441;28;20021;-61
2022/12/30 10:32:53;;;;;;;5.00;1.75;;;8.80;99.90;;;;;;5044206;28;20503;-61
2022/12/30 10:35:25;;;;;;;6.68;1.65;;;8.90;99.90;;;;;;5038238;28;20115;-62
2022/12/30 10:38:12;;;;;;;8.75;1.70;;;8.90;99.90;;;;;;5041608;28;20064;-60
2022/12/30 10:41:12;;;;;;;6.97;1.55;;;9.00;99.90;;;;;;5041961;28;20041;-62
2022/12/30 10:43:59;;;;;;;9.65;1.63;;;9.00;99.90;;;;;;5041440;28;20034;-61
2022/12/30 10:46:28;;;;;;;48.72;30.38;;;9.00;99.90;;;;;;5040710;28;20557;-61
2022/12/30 10:49:29;;;;;;;10.30;1.70;;;9.00;99.90;;;;;;5043741;28;20448;-61
2022/12/30 10:51:55;;;;;;;51.05;26.55;;;9.00;99.90;;;;;;5043661;28;20033;-61
2022/12/30 10:54:20;;;;;;;9.38;2.55;;;9.10;99.90;;;;;;5039717;28;20080;-61
2022/12/30 10:56:48;;;;;;;8.60;1.95;;;9.10;99.90;;;;;;5040729;28;20510;-61
2022/12/30 10:59:21;;;;;;;6.60;1.48;;;9.00;99.90;;;;;;5042250;28;20645;-60
2022/12/30 11:01:48;;;;;;;8.45;1.77;;;9.00;99.90;;;;;;5044048;28;20400;-61
2022/12/30 11:04:37;;;;;;;10.07;2.05;;;9.10;99.90;;;;;;5038854;28;20029;-61
2022/12/30 11:07:06;;;;;;;9.80;1.45;;;9.10;99.90;;;;;;5041661;28;20044;-61
2022/12/30 11:09:31;;;;;;;5.43;1.40;;;9.00;99.90;;;;;;5041755;28;20037;-62
2022/12/30 11:15:10;;;;;;;6.70;1.73;;;9.10;99.90;;;;;;5040183;28;20411;-61
2022/12/30 11:17:47;;;;;;;6.93;1.40;;;9.10;99.90;;;;;;5041999;28;20078;-62
2022/12/30 11:20:12;;;;;;;7.90;2.95;;;9.20;99.90;;;;;;5041745;28;20143;-60
2022/12/30 11:22:49;;;;;;;6.07;1.63;;;9.20;99.90;;;;;;5042479;28;20116;-62
2022/12/30 11:25:35;;;;;;;8.48;2.17;;;9.10;99.90;;;;;;5040974;28;20447;-61
2022/12/30 11:28:12;;;;;;;5.65;1.60;;;9.10;99.90;;;;;;5041077;28;20037;-61
2022/12/30 11:30:44;;;;;;;9.32;1.55;;;9.10;99.90;;;;;;5034852;28;20037;-61
2022/12/30 11:33:24;;;;;;;11.48;2.20;;;9.10;99.90;;;;;;5042055;28;20492;-62
2022/12/30 11:35:50;;;;;;;7.45;1.88;;;9.20;99.90;;;;;;5023654;28;20637;-62
2022/12/30 11:38:37;;;;;;;7.45;2.25;;;9.10;99.90;;;;;;5041300;28;20029;-61
2022/12/30 11:41:24;;;;;;;8.85;1.50;;;9.10;99.90;;;;;;5037815;28;20489;-61
2022/12/30 11:43:59;;;;;;;13.52;2.25;;;9.10;99.90;;;;;;5029801;28;20036;-61
2022/12/30 11:46:30;;;;;;;9.35;2.00;;;9.10;99.90;;;;;;5039418;28;20708;-60
2022/12/30 11:48:59;;;;;;;12.45;3.05;;;9.10;99.90;;;;;;5036098;28;20036;-61
2022/12/30 11:51:42;;;;;;;6.90;2.40;;;9.10;99.90;;;;;;5042005;28;20076;-62
2022/12/30 11:54:10;;;;;;;;;;;9.10;99.90;;;;;;5042641;28;20048;-61
2022/12/30 11:56:38;;;;;;;7.60;1.70;;;9.10;99.90;;;;;;5017772;28;20287;-61
2022/12/30 11:59:13;;;;;;;6.72;1.35;;;9.10;99.90;;;;;;5046687;28;20036;-63
2022/12/30 12:01:47;;;;;;;10.63;2.03;;;9.10;99.90;;;;;;5046466;28;20047;-61
2022/12/30 12:04:51;;;;;;;9.35;2.15;;;9.10;99.90;;;;;;5041927;28;20032;-61
2022/12/30 12:07:16;;;;;;;;;;;9.10;99.90;;;;;;4953676;28;20052;-62
2022/12/30 12:10:19;;;;;;;6.93;1.85;;;9.10;99.90;;;;;;4947907;28;19949;-62
2022/12/30 12:13:02;;;;;;;7.90;1.90;;;9.20;99.90;;;;;;5006470;28;20447;-61
2022/12/30 12:15:37;;;;;;;6.35;1.77;;;9.20;99.90;;;;;;5050335;28;20060;-61
2022/12/30 12:18:34;;;;;;;5.45;1.73;;;9.20;99.90;;;;;;5042365;28;20094;-61
2022/12/30 12:21:08;;;;;;;8.13;2.22;;;9.20;99.90;;;;;;5040147;28;20538;-62
2022/12/30 12:23:55;;;;;;;6.68;1.65;;;9.20;99.90;;;;;;5002136;28;20033;-63
2022/12/30 12:26:30;;;;;;;7.25;1.63;;;9.30;99.90;;;;;;5042458;28;20418;-61
2022/12/30 12:28:57;;;;;;;7.53;1.35;;;9.30;99.90;;;;;;5044104;28;20128;-61
2022/12/30 12:31:42;;;;;;;43.88;25.67;;;9.30;99.90;;;;;;5044756;28;20037;-63
2022/12/30 12:34:29;;;;;;;7.57;2.00;;;9.30;99.90;;;;;;5025448;28;20508;-61
2022/12/30 12:37:03;;;;;;;81.35;47.92;;;9.30;99.90;;;;;;5042509;28;20510;-60
2022/12/30 12:39:55;;;;;;;7.70;1.98;;;9.40;99.90;;;;;;5045553;28;20101;-61
2022/12/30 12:42:26;;;;;;;5.85;1.90;;;9.40;99.90;;;;;;5044884;28;20043;-61
2022/12/30 12:45:01;;;;;;;8.68;1.95;;;9.40;99.90;;;;;;5042878;28;20060;-61
2022/12/30 12:47:47;;;;;;;10.02;1.80;;;9.40;99.90;;;;;;5024057;28;20038;-62
2022/12/30 12:50:20;;;;;;;10.20;2.17;;;9.50;99.90;;;;;;5043947;28;20043;-62
2022/12/30 12:53:01;;;;;;;7.78;2.20;;;9.50;99.90;;;;;;5045687;28;20033;-62
2022/12/30 12:55:52;;;;;;;8.90;2.75;;;9.50;99.90;;;;;;5041153;28;20259;-62
2022/12/30 12:58:50;;;;;;;4.60;1.83;;;9.50;99.90;;;;;;5043510;28;20449;-62
2022/12/30 13:01:35;;;;;;;7.53;1.63;;;9.50;99.90;;;;;;5039317;28;20480;-63
2022/12/30 13:04:35;;;;;;;8.07;1.63;;;9.50;99.90;;;;;;5044243;28;20021;-61
2022/12/30 13:07:20;;;;;;;8.55;1.83;;;9.50;99.90;;;;;;5037434;28;20705;-61
2022/12/30 13:10:04;;;;;;;3.85;1.38;;;9.40;99.90;;;;;;5043033;28;20024;-62
2022/12/30 13:12:48;;;;;;;6.70;1.67;;;9.40;99.90;;;;;;5044042;28;20044;-61
2022/12/30 13:15:40;;;;;;;10.20;2.10;;;9.40;99.90;;;;;;5043087;28;20037;-61
2022/12/30 13:18:16;;;;;;;7.07;1.92;;;9.20;99.90;;;;;;5024227;28;20406;-61
2022/12/30 13:20:58;;;;;;;6.30;1.80;;;9.10;99.90;;;;;;5026499;28;20033;-61
2022/12/30 13:23:27;;;;;;;4.40;1.15;;;9.10;99.90;;;;;;5043268;28;20044;-61
2022/12/30 13:25:59;;;;;;;7.35;2.00;;;8.90;99.90;;;;;;5043016;28;20033;-62
2022/12/30 13:28:28;;;;;;;6.03;1.88;;;8.90;99.90;;;;;;5043167;28;20086;-62
2022/12/30 13:31:20;;;;;;;7.43;2.10;;;8.90;99.90;;;;;;5042508;28;20033;-61
2022/12/30 13:34:23;;;;;;;9.80;2.28;;;8.90;99.90;;;;;;5041305;28;20157;-63
2022/12/30 13:37:03;;;;;;;5.75;2.25;;;8.90;99.90;;;;;;5043776;28;20025;-62
2022/12/30 13:39:52;;;;;;;5.00;1.70;;;8.90;99.90;;;;;;5043183;28;20357;-62
2022/12/30 13:42:42;;;;;;;6.55;2.42;;;8.90;99.90;;;;;;5040054;28;20036;-62
2022/12/30 13:45:27;;;;;;;6.47;2.25;;;8.90;99.90;;;;;;5043736;28;20769;-63
2022/12/30 13:48:23;;;;;;;5.57;2.50;;;8.80;99.90;;;;;;5021015;28;20033;-62
2022/12/30 13:51:05;;;;;;;9.77;2.72;;;8.90;99.90;;;;;;5012042;28;20080;-62
2022/12/30 13:53:37;;;;;;;8.02;2.92;;;8.80;99.90;;;;;;5044231;28;20047;-61
2022/12/30 13:56:04;;;;;;;4.68;2.40;;;8.90;99.90;;;;;;5042944;28;20061;-61
2022/12/30 13:58:37;;;;;;;7.25;2.65;;;8.90;99.90;;;;;;5044715;28;20668;-63
2022/12/30 14:01:23;;;;;;;8.18;2.58;;;8.80;99.90;;;;;;5043479;28;20116;-63
2022/12/30 14:04:14;;;;;;;5.53;2.42;;;8.80;99.90;;;;;;5024646;28;20029;-62
2022/12/30 14:06:45;;;;;;;5.43;2.20;;;8.60;99.90;;;;;;5035526;28;20021;-62
2022/12/30 14:09:19;;;;;;;7.13;2.35;;;8.70;99.90;;;;;;5043469;28;20447;-63
2022/12/30 14:12:04;;;;;;;6.40;2.75;;;8.70;99.90;;;;;;5042143;28;20706;-63